EDT,Max TemperatureF,Mean TemperatureF,Min TemperatureF,Max Dew PointF,MeanDew PointF,Min DewpointF,Max Humidity, Mean Humidity, Min Humidity, Max Sea Level PressureIn, Mean Sea Level PressureIn, Min Sea Level PressureIn, Max VisibilityMiles, Mean VisibilityMiles, Min VisibilityMiles, Max Wind SpeedMPH, Mean Wind SpeedMPH, Max Gust SpeedMPH,PrecipitationIn, CloudCover, Events, WindDirDegrees
2013-9-1,89,82,76,74,71,69,85,72,55,30.04,29.99,29.94,10,10,10,18,8,,0.02,0,Rain-Thunderstorm,201
2013-9-2,88,82,75,75,71,68,82,73,59,30.06,30.00,29.96,10,9,1,24,8,31,0.43,1,Rain-Thunderstorm,180
2013-9-3,88,82,75,74,72,66,85,73,56,30.06,30.00,29.96,10,10,10,12,8,20,0.01,0,Rain-Thunderstorm,194
2013-9-4,88,83,78,76,74,72,84,73,59,30.12,30.06,30.01,10,10,10,8,5,,0.00,0,,122
2013-9-5,88,84,79,78,76,73,87,77,68,30.12,30.08,30.05,10,10,10,9,7,,0.00,0,,47
2013-9-6,89,84,78,77,75,72,85,77,62,30.08,30.04,29.99,10,10,9,20,5,,0.10,1,Rain-Thunderstorm,95
2013-9-7,87,82,77,76,73,71,88,76,63,30.04,30.00,29.96,10,10,10,12,8,,0.00,0,,15
2013-9-8,88,84,79,74,72,70,79,70,57,29.99,29.95,29.91,10,10,10,16,10,,0.00,0,,36
2013-9-9,88,84,80,73,72,70,77,68,58,30.06,30.01,29.96,10,10,10,13,8,,0.00,0,,66
2013-9-10,89,82,77,74,70,68,83,68,52,30.11,30.07,30.01,10,9,2,22,13,30,0.10,1,Rain,87
2013-9-11,88,84,80,74,73,71,79,71,61,30.11,30.07,30.04,10,10,10,15,11,,0.00,0,Thunderstorm,82
2013-9-12,85,82,78,75,72,70,82,74,65,30.04,29.98,29.92,10,10,10,10,6,,0.00,1,Thunderstorm,115
2013-9-13,87,82,76,74,73,70,89,77,57,29.94,29.89,29.83,10,10,10,13,6,,0.00,1,Thunderstorm,174
2013-9-14,88,83,78,76,75,73,84,74,66,30.01,29.93,29.86,10,10,10,13,7,,0.00,0,Rain-Thunderstorm,144
2013-9-15,90,82,77,78,74,69,84,77,68,30.11,30.05,29.99,10,10,5,23,9,29,0.06,2,Rain-Thunderstorm,121
2013-9-16,88,83,78,74,73,70,83,73,62,30.11,30.06,30.03,10,10,10,20,10,25,0.00,1,,97
2013-9-17,88,82,76,74,72,70,89,74,59,30.09,30.02,29.98,10,8,0,28,12,29,0.88,2,Rain,74
2013-9-18,86,82,78,75,73,70,84,77,68,30.06,30.02,29.99,10,8,1,26,16,32,0.31,2,Rain,80
2013-9-19,87,82,78,73,71,67,81,68,58,30.06,30.03,29.99,10,10,10,16,14,,0.00,0,,73
2013-9-20,80,79,79,67,66,66,66,64,62,30.02,30.01,30.01,10,10,10,13,11,,0.00,0,,70
2013-9-21,85,82,78,70,69,67,70,64,56,29.92,29.85,29.80,10,10,10,12,6,,0.00,0,,122
2013-9-22,90,83,76,74,72,69,86,73,49,29.88,29.82,29.77,10,10,10,18,10,22,0.02,0,,248
2013-9-23,86,79,73,77,73,71,94,88,76,30.00,29.96,29.92,10,7,1,16,8,,2.11,5,Rain-Thunderstorm,147
2013-9-24,85,80,75,75,74,71,94,83,70,29.99,29.92,29.87,10,10,6,16,8,21,0.03,1,Rain,214
2013-9-25,83,78,75,74,71,68,94,80,63,29.86,29.84,29.81,10,10,10,17,11,23,0.00,2,,256
2013-9-26,91,84,76,77,73,68,94,77,46,29.88,29.83,29.78,10,10,10,22,13,,0.00,1,,295
2013-9-27,83,78,72,73,71,68,92,82,66,29.96,29.91,29.86,10,9,1,20,10,25,0.38,5,Rain,14
2013-9-28,86,80,75,74,70,65,83,72,60,30.03,29.98,29.92,10,10,2,20,10,22,0.06,2,Rain,48
2013-9-29,84,80,75,70,69,65,82,70,60,30.01,29.98,29.94,10,10,10,14,8,,0.00,1,,14
2013-9-30,84,79,74,72,70,69,88,71,60,30.04,29.98,29.95,10,10,10,12,6,,0.00,0,,66